AirNav   ATP
 
 761 users online  

4R7 Eunice Airport
Eunice, Louisiana, USA

GOING TO EUNICE?


FAA INFORMATION EFFECTIVE 01 FEBRUARY 2018

Location

FAA Identifier: 4R7
Lat/Long: 30-27-58.6220N / 092-25-25.6770W
30-27.977033N / 092-25.427950W
30.4662839 / -92.4237992
(estimated)
Elevation: 42 ft. / 12.8 m (surveyed)
Variation: 02E (2005)
From city: 2 miles S of EUNICE, LA
Time zone: UTC -6 (UTC -5 during Daylight Saving Time)
Zip code: 70535

Airport Operations

Airport use: Open to the public
Activation date: 09/1964
Control tower: no
ARTCC: HOUSTON CENTER
FSS: DE RIDDER FLIGHT SERVICE STATION
NOTAMs facility: DRI (NOTAM-D service available)
Attendance: MON-FRI 0800-1700, ALL SAT ON CALL, ALL SUN ON CALL
Wind indicator: lighted
Segmented circle: yes
Lights: MIRL RY 16/34 & REIL RYS 16 & 34 PRESET LOW INTST DUSK-DAWN; TO INCR INTST ACTVT - CTAF.
Beacon: white-green (lighted land airport)
Operates sunset to sunrise.

Airport Communications

CTAF/UNICOM: 122.8
LAFAYETTE APPROACH: 128.7
LAFAYETTE DEPARTURE: 128.7
WX AWOS-3PT at OPL (18 nm E): 118.775 (337-948-8560)
WX AWOS-3PT at 3R7 (19 nm SW): 121.150 (337-824-0517)
  • APCH/DEP SERVICE PROVIDED BY HOUSTON ARTCC ON FREQS 126.35/338.25 (LAFAYETTE RCAG) WHEN LAFAYETTE APCH CTL CLSD.

Nearby radio navigation aids

VOR radial/distance  VOR name  Freq  Var
LFTr303/27.7LAFAYETTE VORTAC109.8003E

 
NDB name  Hdg/Dist  Freq  Var  ID
DURALDE165/5.826302EECY . -.-. -.--
OAKDALE124/17.337903ELRR .-.. .-. .-.
ABBEVILLE325/28.923002EBNZ -... -. --..

Airport Services

Fuel available: 100LL JET-A MOGAS
FOR FUEL AFTER HOURS CALL 337-457-6585.
Parking: hangars and tiedowns
Airframe service: MINOR
Powerplant service: MINOR
Bottled oxygen: NONE
Bulk oxygen: NONE

Runway Information

Runway 16/34

Dimensions: 5001 x 75 ft. / 1524 x 23 m
Surface: asphalt, in good condition
Weight bearing capacity: 
Single wheel: 21.0
Runway edge lights: medium intensity
RUNWAY 16  RUNWAY 34
Latitude: 30-28.377583N30-27.577350N
Longitude: 092-25.544600W092-25.312733W
Elevation: 39.0 ft.42.0 ft.
Gradient: 0.1%0.1%
Traffic pattern: leftleft
Runway heading: 164 magnetic, 166 true344 magnetic, 346 true
Markings: nonprecision, in good conditionnonprecision, in good condition
Visual slope indicator: 2-light PAPI on left (3.00 degrees glide path)2-light PAPI on left (3.00 degrees glide path)
Runway end identifier lights: yesyes
Touchdown point: yes, no lightsyes, no lights
Obstructions: 61 ft. trees, 1282 ft. from runway, 17:1 slope to clear51 ft. trees, 827 ft. from runway, 12:1 slope to clear

Airport Ownership and Management from official FAA records

Ownership: Publicly-owned
Owner: CITY OF EUNICE
PO BOX 1106
EUNICE, LA 70535
Phone 337-457-7389
Manager: DREW MILLER
252 EUNICE AIRPORT ROAD
EUNICE, LA 70535
Phone 337-457-6585

Airport Operational Statistics

Aircraft based on the field: 35
Single engine airplanes: 31
Multi engine airplanes: 2
Ultralights: 2
    
Aircraft operations: avg 41/day *
67% local general aviation
33% transient general aviation
* for 12-month period ending 26 April 2017

Additional Remarks

GCO AVBL ON FREQ 135.075 THRU LAFAYETTE APCH & DRI FSS.

Instrument Procedures

NOTE: All procedures below are presented as PDF files. If you need a reader for these files, you should download the free Adobe Reader.

NOT FOR NAVIGATION. Please procure official charts for flight.
FAA instrument procedures published for use between 1 February 2018 at 0901Z and 1 March 2018 at 0900Z.

 
IAPs - Instrument Approach Procedures
RNAV (GPS) RWY 16   download (147KB)
RNAV (GPS) RWY 34   download (157KB)
VOR/DME-A   download (153KB)
NDB RWY 16   download (145KB)
NOTE: Special Take-Off Minimums/Departure Procedures apply   download (116KB)

Other nearby airports with instrument procedures:

KOPL - St Landry Parish Airport-Ahart Field (18 nm E)
3R7 - Jennings Airport (19 nm SW)
KACP - Allen Parish Airport (22 nm NW)
6R1 - Welsh Airport (25 nm SW)
KLFT - Lafayette Regional Airport/Paul Fournet Field (27 nm SE)
 
Loc | Ops | Rwys | IFR | FBO | Links
Com | Nav | Svcs | Stats | Notes

AirNav Hotels Sweepstakes
 
Area around 4R7 (Eunice Airport)
 
Road maps at: MapQuest Bing Google
 
Aerial photo
WARNING: Photo may not be current or correct
Aerial photo of 4R7 (Eunice Airport)
Photo: Jay Powell, taken in a Cessna Cardinal

Do you have a better or more recent aerial photo of Eunice Airport that you would like to share? If so, please send us your photo.

 
Sectional chart

 
Airport distance calculator
Flying to Eunice Airport? Find the distance to fly.

From to 4R7

Sunrise and sunset
Times for 20-Feb-2018
 Local
(UTC-6)
 Zulu
(UTC)
Morning civil twilight06:2212:22
Sunrise06:4612:46
Sunset18:0100:01
Evening civil twilight18:2500:25

Current date and time
Zulu (UTC)  21-Feb-2018 04:31:14
Local (UTC-6)  20-Feb-2018 22:31:14
 
METAR
KOPL 
18nm E 
210415Z AUTO 16008KT 10SM OVC015 23/21 A3014 RMK AO2 T02260208
K3R7 
19nm SW 
210415Z AUTO 15009KT 10SM OVC010 23/21 A3013 RMK AO2 T02260211
KACP 
22nm NW 
210415Z AUTO 15004KT 10SM OVC014 23/21 A3013 RMK AO2 T02270205
KLFT 
27nm SE 
210353Z 16007KT 10SM OVC013 23/22 A3014 RMK AO2 SLP205 T02330217
KIYA 
34nm SE 
210415Z AUTO 14009KT 7SM OVC006 22/22 A3014 RMK AO2 T02190219
K0R3 
34nm SE 
118.875
No observation available
TAF
KLFT 
27nm SE 
201730Z 2018/2118 18015G21KT P6SM FEW025 BKN045 FM202100 18013G20KT P6SM VCSH FEW030 BKN050 FM210100 17007KT P6SM VCSH OVC015 FM211200 17007KT 5SM -SHRA BR OVC008 FM211500 16012KT 3SM -SHRA BR OVC004
NOTAMs
Click for the latest NOTAMs
NOTAMs are issued by the DoD/FAA and will open in a separate window not controlled by AirNav.

 

 
 

FBO, Fuel Providers, and Aircraft Ground Support

  
 Business Name 
 
 Contact 
 
 Services / Description 
 
Fuel Prices
 
Comments
  
Eunice Flying Service 337-457-6585
no information available

If you are affiliated with Eunice Flying Service and would like to show here your services, contact info, web link, logo, and more, click here
100LL Jet A Mogas
FS $4.50 $4.50 $3.50 
 Updated 16-Feb-2018
 
   write
FS=Full service
Update Fuel Prices
 

Would you like to see your business listed on this page?

 If your business provides an interesting product or service to pilots, flight crews, aircraft, or users of the Eunice Airport, you should consider listing it here.  To start the listing process, click on the button below
 
Add a business
 

Other Pages about Eunice Airport

Update a link
 
Copyright © AirNav, LLC. All rights reserved. Privacy Policy  Contact